sensor_id;sensor_type;location;lat;lon;timestamp;P1;durP1;ratioP1;P2;durP2;ratioP2
21215;SDS011;10765;50.954;5.322;2023-09-12T00:01:20;11.20;;;9.93;;
21215;SDS011;10765;50.954;5.322;2023-09-12T00:03:47;9.83;;;8.93;;
21215;SDS011;10765;50.954;5.322;2023-09-12T00:06:13;11.00;;;10.00;;
21215;SDS011;10765;50.954;5.322;2023-09-12T00:08:40;11.83;;;10.60;;
21215;SDS011;10765;50.954;5.322;2023-09-12T00:11:08;14.53;;;13.03;;
21215;SDS011;10765;50.954;5.322;2023-09-12T00:13:37;15.10;;;13.60;;
21215;SDS011;10765;50.954;5.322;2023-09-12T00:16:05;17.23;;;15.40;;
21215;SDS011;10765;50.954;5.322;2023-09-12T00:18:34;16.57;;;14.87;;
21215;SDS011;10765;50.954;5.322;2023-09-12T00:21:01;14.40;;;12.90;;
21215;SDS011;10765;50.954;5.322;2023-09-12T00:23:29;14.67;;;13.27;;
21215;SDS011;10765;50.954;5.322;2023-09-12T00:25:56;13.40;;;12.30;;
21215;SDS011;10765;50.954;5.322;2023-09-12T00:28:23;12.50;;;11.30;;
21215;SDS011;10765;50.954;5.322;2023-09-12T00:30:52;12.80;;;11.40;;
21215;SDS011;10765;50.954;5.322;2023-09-12T00:33:19;14.47;;;13.07;;
21215;SDS011;10765;50.954;5.322;2023-09-12T00:35:46;13.77;;;12.57;;
21215;SDS011;10765;50.954;5.322;2023-09-12T00:38:14;15.17;;;13.67;;
21215;SDS011;10765;50.954;5.322;2023-09-12T00:40:41;13.43;;;12.03;;
21215;SDS011;10765;50.954;5.322;2023-09-12T00:43:08;14.57;;;13.17;;
21215;SDS011;10765;50.954;5.322;2023-09-12T00:45:35;15.13;;;13.63;;
21215;SDS011;10765;50.954;5.322;2023-09-12T00:48:04;15.20;;;13.80;;
21215;SDS011;10765;50.954;5.322;2023-09-12T00:50:32;15.03;;;13.63;;
21215;SDS011;10765;50.954;5.322;2023-09-12T00:53:01;14.77;;;13.43;;
21215;SDS011;10765;50.954;5.322;2023-09-12T00:55:30;14.10;;;12.80;;
21215;SDS011;10765;50.954;5.322;2023-09-12T00:57:59;14.77;;;13.47;;
21215;SDS011;10765;50.954;5.322;2023-09-12T01:00:28;14.60;;;13.20;;
21215;SDS011;10765;50.954;5.322;2023-09-12T01:02:55;14.70;;;12.30;;
21215;SDS011;10765;50.954;5.322;2023-09-12T01:05:24;14.73;;;13.33;;
21215;SDS011;10765;50.954;5.322;2023-09-12T01:07:51;13.47;;;12.27;;
21215;SDS011;10765;50.954;5.322;2023-09-12T01:10:18;12.93;;;11.73;;
21215;SDS011;10765;50.954;5.322;2023-09-12T01:12:45;13.30;;;11.93;;
21215;SDS011;10765;50.954;5.322;2023-09-12T01:15:12;14.07;;;12.67;;
21215;SDS011;10765;50.954;5.322;2023-09-12T01:17:40;14.00;;;12.70;;
21215;SDS011;10765;50.954;5.322;2023-09-12T01:20:08;14.40;;;13.07;;
21215;SDS011;10765;50.954;5.322;2023-09-12T01:25:52;15.63;;;14.10;;
21215;SDS011;10765;50.954;5.322;2023-09-12T01:28:38;16.10;;;14.60;;
21215;SDS011;10765;50.954;5.322;2023-09-12T01:31:08;15.00;;;13.70;;
21215;SDS011;10765;50.954;5.322;2023-09-12T01:33:36;15.30;;;13.70;;
21215;SDS011;10765;50.954;5.322;2023-09-12T01:36:03;14.97;;;13.57;;
21215;SDS011;10765;50.954;5.322;2023-09-12T01:38:30;14.30;;;13.00;;
21215;SDS011;10765;50.954;5.322;2023-09-12T01:40:57;14.40;;;13.00;;
21215;SDS011;10765;50.954;5.322;2023-09-12T01:43:25;15.40;;;13.73;;
21215;SDS011;10765;50.954;5.322;2023-09-12T01:45:54;14.80;;;13.40;;
21215;SDS011;10765;50.954;5.322;2023-09-12T01:48:25;13.97;;;12.67;;
21215;SDS011;10765;50.954;5.322;2023-09-12T01:50:58;14.33;;;12.90;;
21215;SDS011;10765;50.954;5.322;2023-09-12T01:53:26;14.00;;;12.60;;
21215;SDS011;10765;50.954;5.322;2023-09-12T01:55:54;12.67;;;11.33;;
21215;SDS011;10765;50.954;5.322;2023-09-12T01:58:23;14.00;;;12.70;;
21215;SDS011;10765;50.954;5.322;2023-09-12T02:00:51;13.63;;;12.23;;
21215;SDS011;10765;50.954;5.322;2023-09-12T02:03:20;15.60;;;14.20;;
21215;SDS011;10765;50.954;5.322;2023-09-12T02:05:47;14.30;;;13.00;;
21215;SDS011;10765;50.954;5.322;2023-09-12T02:08:14;13.57;;;12.27;;
21215;SDS011;10765;50.954;5.322;2023-09-12T02:10:41;14.43;;;12.97;;
21215;SDS011;10765;50.954;5.322;2023-09-12T02:13:08;14.13;;;12.57;;
21215;SDS011;10765;50.954;5.322;2023-09-12T02:15:35;13.07;;;11.87;;
21215;SDS011;10765;50.954;5.322;2023-09-12T02:18:02;13.97;;;12.67;;
21215;SDS011;10765;50.954;5.322;2023-09-12T02:20:30;13.17;;;11.97;;
21215;SDS011;10765;50.954;5.322;2023-09-12T02:22:58;14.00;;;12.60;;
21215;SDS011;10765;50.954;5.322;2023-09-12T02:25:24;14.87;;;13.43;;
21215;SDS011;10765;50.954;5.322;2023-09-12T02:27:51;13.53;;;12.23;;
21215;SDS011;10765;50.954;5.322;2023-09-12T02:30:18;14.07;;;12.73;;
21215;SDS011;10765;50.954;5.322;2023-09-12T02:32:45;13.17;;;11.87;;
21215;SDS011;10765;50.954;5.322;2023-09-12T02:35:12;12.80;;;11.43;;
21215;SDS011;10765;50.954;5.322;2023-09-12T02:37:40;12.83;;;11.53;;
21215;SDS011;10765;50.954;5.322;2023-09-12T02:40:08;12.93;;;11.67;;
21215;SDS011;10765;50.954;5.322;2023-09-12T02:42:36;11.40;;;10.33;;
21215;SDS011;10765;50.954;5.322;2023-09-12T02:45:04;12.27;;;11.13;;
21215;SDS011;10765;50.954;5.322;2023-09-12T02:47:32;14.17;;;12.67;;
21215;SDS011;10765;50.954;5.322;2023-09-12T02:49:58;13.03;;;11.73;;
21215;SDS011;10765;50.954;5.322;2023-09-12T02:52:25;15.00;;;13.60;;
21215;SDS011;10765;50.954;5.322;2023-09-12T02:54:53;14.67;;;13.23;;
21215;SDS011;10765;50.954;5.322;2023-09-12T02:57:20;14.73;;;13.37;;
21215;SDS011;10765;50.954;5.322;2023-09-12T02:59:47;14.10;;;12.90;;
21215;SDS011;10765;50.954;5.322;2023-09-12T03:02:14;14.70;;;13.23;;
21215;SDS011;10765;50.954;5.322;2023-09-12T03:04:41;16.63;;;15.00;;
21215;SDS011;10765;50.954;5.322;2023-09-12T03:07:08;16.10;;;14.70;;
21215;SDS011;10765;50.954;5.322;2023-09-12T03:09:35;17.33;;;15.73;;
21215;SDS011;10765;50.954;5.322;2023-09-12T03:12:04;18.83;;;15.57;;
21215;SDS011;10765;50.954;5.322;2023-09-12T03:14:31;15.43;;;14.03;;
21215;SDS011;10765;50.954;5.322;2023-09-12T03:16:58;15.73;;;14.33;;
21215;SDS011;10765;50.954;5.322;2023-09-12T03:19:25;16.00;;;14.50;;
21215;SDS011;10765;50.954;5.322;2023-09-12T03:21:52;15.03;;;13.63;;
21215;SDS011;10765;50.954;5.322;2023-09-12T03:24:19;16.97;;;15.37;;
21215;SDS011;10765;50.954;5.322;2023-09-12T03:26:48;15.90;;;14.40;;
21215;SDS011;10765;50.954;5.322;2023-09-12T03:29:17;15.67;;;14.17;;
21215;SDS011;10765;50.954;5.322;2023-09-12T03:31:44;15.60;;;14.10;;
21215;SDS011;10765;50.954;5.322;2023-09-12T03:34:10;15.57;;;13.97;;
21215;SDS011;10765;50.954;5.322;2023-09-12T03:36:37;15.70;;;14.30;;
21215;SDS011;10765;50.954;5.322;2023-09-12T03:39:04;14.57;;;13.17;;
21215;SDS011;10765;50.954;5.322;2023-09-12T03:41:33;15.53;;;14.03;;
21215;SDS011;10765;50.954;5.322;2023-09-12T03:44:00;16.30;;;14.60;;
21215;SDS011;10765;50.954;5.322;2023-09-12T03:46:28;16.27;;;14.60;;
21215;SDS011;10765;50.954;5.322;2023-09-12T03:48:55;15.80;;;14.40;;
21215;SDS011;10765;50.954;5.322;2023-09-12T03:51:22;15.50;;;14.10;;
21215;SDS011;10765;50.954;5.322;2023-09-12T03:53:49;17.37;;;15.73;;
21215;SDS011;10765;50.954;5.322;2023-09-12T03:56:16;18.63;;;16.83;;
21215;SDS011;10765;50.954;5.322;2023-09-12T03:58:45;20.53;;;18.43;;
21215;SDS011;10765;50.954;5.322;2023-09-12T04:01:11;18.70;;;16.90;;
21215;SDS011;10765;50.954;5.322;2023-09-12T04:03:40;16.57;;;15.13;;
21215;SDS011;10765;50.954;5.322;2023-09-12T04:06:07;18.80;;;16.90;;
21215;SDS011;10765;50.954;5.322;2023-09-12T04:08:34;18.23;;;16.47;;
21215;SDS011;10765;50.954;5.322;2023-09-12T04:11:01;19.20;;;17.40;;
21215;SDS011;10765;50.954;5.322;2023-09-12T04:13:28;19.23;;;17.40;;
21215;SDS011;10765;50.954;5.322;2023-09-12T04:15:55;17.73;;;16.07;;
21215;SDS011;10765;50.954;5.322;2023-09-12T04:18:22;17.87;;;16.07;;
21215;SDS011;10765;50.954;5.322;2023-09-12T04:20:51;19.20;;;17.27;;
21215;SDS011;10765;50.954;5.322;2023-09-12T04:23:20;20.37;;;18.27;;
21215;SDS011;10765;50.954;5.322;2023-09-12T04:25:47;21.20;;;19.17;;
21215;SDS011;10765;50.954;5.322;2023-09-12T04:28:14;22.70;;;20.23;;
21215;SDS011;10765;50.954;5.322;2023-09-12T04:30:41;21.93;;;19.83;;
21215;SDS011;10765;50.954;5.322;2023-09-12T04:33:08;22.80;;;20.57;;
21215;SDS011;10765;50.954;5.322;2023-09-12T04:35:35;22.63;;;20.57;;
21215;SDS011;10765;50.954;5.322;2023-09-12T04:38:03;21.47;;;19.23;;
21215;SDS011;10765;50.954;5.322;2023-09-12T04:40:30;25.33;;;20.50;;
21215;SDS011;10765;50.954;5.322;2023-09-12T04:42:57;22.03;;;19.83;;
21215;SDS011;10765;50.954;5.322;2023-09-12T04:45:24;20.27;;;18.30;;
21215;SDS011;10765;50.954;5.322;2023-09-12T04:47:51;20.37;;;18.37;;
21215;SDS011;10765;50.954;5.322;2023-09-12T04:50:17;20.13;;;18.17;;
21215;SDS011;10765;50.954;5.322;2023-09-12T04:52:44;19.27;;;17.40;;
21215;SDS011;10765;50.954;5.322;2023-09-12T04:55:13;20.77;;;18.67;;
21215;SDS011;10765;50.954;5.322;2023-09-12T04:57:40;21.80;;;19.30;;
21215;SDS011;10765;50.954;5.322;2023-09-12T05:00:07;20.93;;;18.77;;
21215;SDS011;10765;50.954;5.322;2023-09-12T05:02:35;22.27;;;20.23;;
21215;SDS011;10765;50.954;5.322;2023-09-12T05:05:02;21.97;;;19.90;;
21215;SDS011;10765;50.954;5.322;2023-09-12T05:07:30;21.43;;;19.37;;
21215;SDS011;10765;50.954;5.322;2023-09-12T05:09:57;23.10;;;20.77;;
21215;SDS011;10765;50.954;5.322;2023-09-12T05:12:25;20.73;;;18.77;;
21215;SDS011;10765;50.954;5.322;2023-09-12T05:14:52;21.80;;;19.77;;
21215;SDS011;10765;50.954;5.322;2023-09-12T05:17:19;23.40;;;21.07;;
21215;SDS011;10765;50.954;5.322;2023-09-12T05:19:46;23.70;;;21.23;;
21215;SDS011;10765;50.954;5.322;2023-09-12T05:22:13;23.60;;;21.23;;
21215;SDS011;10765;50.954;5.322;2023-09-12T05:24:39;25.07;;;22.57;;
21215;SDS011;10765;50.954;5.322;2023-09-12T05:27:06;20.93;;;18.80;;
21215;SDS011;10765;50.954;5.322;2023-09-12T05:29:35;20.83;;;18.80;;
21215;SDS011;10765;50.954;5.322;2023-09-12T05:32:02;22.73;;;20.43;;
21215;SDS011;10765;50.954;5.322;2023-09-12T05:34:29;25.07;;;22.13;;
21215;SDS011;10765;50.954;5.322;2023-09-12T05:36:56;22.27;;;20.17;;
21215;SDS011;10765;50.954;5.322;2023-09-12T05:39:23;23.20;;;19.43;;
21215;SDS011;10765;50.954;5.322;2023-09-12T05:41:50;22.00;;;19.63;;
21215;SDS011;10765;50.954;5.322;2023-09-12T05:44:16;20.17;;;18.07;;
21215;SDS011;10765;50.954;5.322;2023-09-12T05:46:45;21.13;;;18.97;;
21215;SDS011;10765;50.954;5.322;2023-09-12T05:49:13;21.90;;;19.70;;
21215;SDS011;10765;50.954;5.322;2023-09-12T05:51:40;21.60;;;19.50;;
21215;SDS011;10765;50.954;5.322;2023-09-12T05:54:07;23.77;;;19.80;;
21215;SDS011;10765;50.954;5.322;2023-09-12T05:56:36;20.67;;;18.57;;
21215;SDS011;10765;50.954;5.322;2023-09-12T05:59:03;22.73;;;19.20;;
21215;SDS011;10765;50.954;5.322;2023-09-12T06:01:29;21.53;;;19.27;;
21215;SDS011;10765;50.954;5.322;2023-09-12T06:03:58;20.43;;;18.30;;
21215;SDS011;10765;50.954;5.322;2023-09-12T06:06:24;20.70;;;18.70;;
21215;SDS011;10765;50.954;5.322;2023-09-12T06:08:51;21.73;;;19.40;;
21215;SDS011;10765;50.954;5.322;2023-09-12T06:11:18;21.90;;;19.63;;
21215;SDS011;10765;50.954;5.322;2023-09-12T06:13:45;25.03;;;20.50;;
21215;SDS011;10765;50.954;5.322;2023-09-12T06:16:12;21.80;;;19.67;;
21215;SDS011;10765;50.954;5.322;2023-09-12T06:18:39;21.03;;;18.93;;
21215;SDS011;10765;50.954;5.322;2023-09-12T06:21:07;21.17;;;18.97;;
21215;SDS011;10765;50.954;5.322;2023-09-12T06:23:34;21.57;;;19.20;;
21215;SDS011;10765;50.954;5.322;2023-09-12T06:26:01;22.83;;;20.53;;
21215;SDS011;10765;50.954;5.322;2023-09-12T06:28:29;21.83;;;19.47;;
21215;SDS011;10765;50.954;5.322;2023-09-12T06:30:57;21.07;;;18.83;;
21215;SDS011;10765;50.954;5.322;2023-09-12T06:33:24;22.63;;;20.37;;
21215;SDS011;10765;50.954;5.322;2023-09-12T06:35:52;22.40;;;20.00;;
21215;SDS011;10765;50.954;5.322;2023-09-12T06:38:21;21.63;;;19.30;;
21215;SDS011;10765;50.954;5.322;2023-09-12T06:40:48;19.67;;;17.87;;
21215;SDS011;10765;50.954;5.322;2023-09-12T06:43:15;17.80;;;16.00;;
21215;SDS011;10765;50.954;5.322;2023-09-12T06:45:42;16.73;;;15.23;;
21215;SDS011;10765;50.954;5.322;2023-09-12T06:48:09;16.67;;;15.03;;
21215;SDS011;10765;50.954;5.322;2023-09-12T06:50:36;15.63;;;14.03;;
21215;SDS011;10765;50.954;5.322;2023-09-12T06:53:04;15.27;;;13.17;;
21215;SDS011;10765;50.954;5.322;2023-09-12T06:55:33;15.10;;;13.70;;
21215;SDS011;10765;50.954;5.322;2023-09-12T06:58:00;15.27;;;13.77;;
21215;SDS011;10765;50.954;5.322;2023-09-12T07:00:28;15.23;;;13.63;;
21215;SDS011;10765;50.954;5.322;2023-09-12T07:02:56;15.57;;;14.17;;
21215;SDS011;10765;50.954;5.322;2023-09-12T07:05:24;14.30;;;12.83;;
21215;SDS011;10765;50.954;5.322;2023-09-12T07:07:52;16.03;;;14.43;;
21215;SDS011;10765;50.954;5.322;2023-09-12T07:10:19;15.77;;;14.30;;
21215;SDS011;10765;50.954;5.322;2023-09-12T07:12:47;15.73;;;14.23;;
21215;SDS011;10765;50.954;5.322;2023-09-12T07:15:14;15.73;;;14.07;;
21215;SDS011;10765;50.954;5.322;2023-09-12T07:17:41;15.90;;;14.30;;
21215;SDS011;10765;50.954;5.322;2023-09-12T07:20:08;15.37;;;13.77;;
21215;SDS011;10765;50.954;5.322;2023-09-12T07:22:36;14.13;;;12.90;;
21215;SDS011;10765;50.954;5.322;2023-09-12T07:25:05;15.40;;;13.80;;
21215;SDS011;10765;50.954;5.322;2023-09-12T07:27:34;15.90;;;14.40;;
21215;SDS011;10765;50.954;5.322;2023-09-12T07:30:02;15.10;;;13.70;;
21215;SDS011;10765;50.954;5.322;2023-09-12T07:32:30;14.97;;;13.40;;
21215;SDS011;10765;50.954;5.322;2023-09-12T07:34:57;14.52;;;13.10;;
21215;SDS011;10765;50.954;5.322;2023-09-12T07:37:23;15.30;;;13.88;;
21215;SDS011;10765;50.954;5.322;2023-09-12T07:39:50;14.77;;;13.20;;
21215;SDS011;10765;50.954;5.322;2023-09-12T07:42:20;15.23;;;13.77;;
21215;SDS011;10765;50.954;5.322;2023-09-12T07:44:48;15.27;;;13.82;;
21215;SDS011;10765;50.954;5.322;2023-09-12T07:47:16;15.23;;;13.82;;
21215;SDS011;10765;50.954;5.322;2023-09-12T07:49:43;15.82;;;14.10;;
21215;SDS011;10765;50.954;5.322;2023-09-12T07:52:09;16.65;;;14.95;;
21215;SDS011;10765;50.954;5.322;2023-09-12T07:54:36;16.83;;;15.25;;
21215;SDS011;10765;50.954;5.322;2023-09-12T07:57:03;17.27;;;15.63;;
21215;SDS011;10765;50.954;5.322;2023-09-12T07:59:30;16.50;;;14.85;;
21215;SDS011;10765;50.954;5.322;2023-09-12T08:01:57;15.75;;;14.18;;
21215;SDS011;10765;50.954;5.322;2023-09-12T08:04:26;17.75;;;15.90;;
21215;SDS011;10765;50.954;5.322;2023-09-12T08:06:53;17.35;;;15.70;;
21215;SDS011;10765;50.954;5.322;2023-09-12T08:09:19;17.13;;;15.43;;
21215;SDS011;10765;50.954;5.322;2023-09-12T08:11:47;18.13;;;16.15;;
21215;SDS011;10765;50.954;5.322;2023-09-12T08:14:14;17.65;;;15.80;;
21215;SDS011;10765;50.954;5.322;2023-09-12T08:16:40;16.90;;;15.20;;
21215;SDS011;10765;50.954;5.322;2023-09-12T08:19:07;20.38;;;16.55;;
21215;SDS011;10765;50.954;5.322;2023-09-12T08:21:35;19.40;;;16.13;;
21215;SDS011;10765;50.954;5.322;2023-09-12T08:24:03;17.60;;;15.87;;
21215;SDS011;10765;50.954;5.322;2023-09-12T08:26:30;18.80;;;16.47;;
21215;SDS011;10765;50.954;5.322;2023-09-12T08:28:57;19.10;;;17.10;;
21215;SDS011;10765;50.954;5.322;2023-09-12T08:31:24;19.00;;;17.00;;
21215;SDS011;10765;50.954;5.322;2023-09-12T08:33:52;18.97;;;17.10;;
21215;SDS011;10765;50.954;5.322;2023-09-12T08:36:19;21.23;;;19.13;;
21215;SDS011;10765;50.954;5.322;2023-09-12T08:38:47;19.50;;;17.60;;
21215;SDS011;10765;50.954;5.322;2023-09-12T08:41:14;18.47;;;16.73;;
21215;SDS011;10765;50.954;5.322;2023-09-12T08:43:41;19.27;;;17.27;;
21215;SDS011;10765;50.954;5.322;2023-09-12T08:46:09;18.75;;;16.92;;
21215;SDS011;10765;50.954;5.322;2023-09-12T08:48:36;18.83;;;16.88;;
21215;SDS011;10765;50.954;5.322;2023-09-12T08:51:04;16.58;;;14.43;;
21215;SDS011;10765;50.954;5.322;2023-09-12T08:53:34;17.33;;;15.55;;
21215;SDS011;10765;50.954;5.322;2023-09-12T08:56:02;17.75;;;15.88;;
21215;SDS011;10765;50.954;5.322;2023-09-12T08:58:30;16.65;;;15.05;;
21215;SDS011;10765;50.954;5.322;2023-09-12T09:00:59;16.33;;;14.73;;
21215;SDS011;10765;50.954;5.322;2023-09-12T09:03:28;15.68;;;14.25;;
21215;SDS011;10765;50.954;5.322;2023-09-12T09:05:55;14.85;;;13.45;;
21215;SDS011;10765;50.954;5.322;2023-09-12T09:08:26;17.25;;;14.30;;
21215;SDS011;10765;50.954;5.322;2023-09-12T09:10:54;15.48;;;14.05;;
21215;SDS011;10765;50.954;5.322;2023-09-12T09:13:23;16.13;;;14.63;;
21215;SDS011;10765;50.954;5.322;2023-09-12T09:16:00;17.42;;;15.60;;
21215;SDS011;10765;50.954;5.322;2023-09-12T09:18:49;15.90;;;14.48;;
21215;SDS011;10765;50.954;5.322;2023-09-12T09:21:17;14.98;;;13.57;;
21215;SDS011;10765;50.954;5.322;2023-09-12T09:23:44;14.65;;;13.25;;
21215;SDS011;10765;50.954;5.322;2023-09-12T09:26:11;13.43;;;12.13;;
21215;SDS011;10765;50.954;5.322;2023-09-12T09:28:40;11.02;;;10.00;;
21215;SDS011;10765;50.954;5.322;2023-09-12T09:31:09;10.88;;;9.88;;
21215;SDS011;10765;50.954;5.322;2023-09-12T09:33:37;9.77;;;8.07;;
21215;SDS011;10765;50.954;5.322;2023-09-12T09:36:06;7.40;;;6.75;;
21215;SDS011;10765;50.954;5.322;2023-09-12T09:38:34;9.65;;;8.65;;
21215;SDS011;10765;50.954;5.322;2023-09-12T09:41:03;9.65;;;7.13;;
21215;SDS011;10765;50.954;5.322;2023-09-12T09:43:31;10.63;;;9.55;;
21215;SDS011;10765;50.954;5.322;2023-09-12T09:46:00;8.43;;;7.55;;
21215;SDS011;10765;50.954;5.322;2023-09-12T09:48:28;8.77;;;7.68;;
21215;SDS011;10765;50.954;5.322;2023-09-12T09:51:00;10.75;;;9.65;;
21215;SDS011;10765;50.954;5.322;2023-09-12T09:53:27;11.03;;;10.13;;
21215;SDS011;10765;50.954;5.322;2023-09-12T09:56:07;11.10;;;10.10;;
21215;SDS011;10765;50.954;5.322;2023-09-12T09:58:36;11.50;;;10.32;;
21215;SDS011;10765;50.954;5.322;2023-09-12T10:01:04;11.57;;;10.52;;
21215;SDS011;10765;50.954;5.322;2023-09-12T10:03:33;10.70;;;9.68;;
21215;SDS011;10765;50.954;5.322;2023-09-12T10:06:03;10.57;;;9.57;;
21215;SDS011;10765;50.954;5.322;2023-09-12T10:08:32;9.40;;;8.60;;
21215;SDS011;10765;50.954;5.322;2023-09-12T10:11:00;9.15;;;8.23;;
21215;SDS011;10765;50.954;5.322;2023-09-12T10:13:28;10.30;;;8.38;;
21215;SDS011;10765;50.954;5.322;2023-09-12T10:15:58;9.20;;;8.32;;
21215;SDS011;10765;50.954;5.322;2023-09-12T10:18:32;9.23;;;8.18;;
21215;SDS011;10765;50.954;5.322;2023-09-12T10:21:09;9.30;;;8.40;;
21215;SDS011;10765;50.954;5.322;2023-09-12T10:23:41;8.63;;;7.82;;
21215;SDS011;10765;50.954;5.322;2023-09-12T10:26:11;9.52;;;8.65;;
21215;SDS011;10765;50.954;5.322;2023-09-12T10:28:40;7.80;;;7.10;;
21215;SDS011;10765;50.954;5.322;2023-09-12T10:31:08;7.32;;;6.63;;
21215;SDS011;10765;50.954;5.322;2023-09-12T10:33:39;7.07;;;6.47;;
21215;SDS011;10765;50.954;5.322;2023-09-12T10:36:06;7.13;;;6.53;;
21215;SDS011;10765;50.954;5.322;2023-09-12T10:38:36;8.80;;;6.50;;
21215;SDS011;10765;50.954;5.322;2023-09-12T10:41:08;7.25;;;6.55;;
21215;SDS011;10765;50.954;5.322;2023-09-12T10:43:38;8.02;;;6.70;;
21215;SDS011;10765;50.954;5.322;2023-09-12T10:46:06;7.22;;;6.55;;
21215;SDS011;10765;50.954;5.322;2023-09-12T10:48:34;7.70;;;7.00;;
21215;SDS011;10765;50.954;5.322;2023-09-12T10:51:03;13.00;;;8.00;;
21215;SDS011;10765;50.954;5.322;2023-09-12T10:53:31;9.90;;;6.32;;
21215;SDS011;10765;50.954;5.322;2023-09-12T10:55:59;7.55;;;6.75;;
21215;SDS011;10765;50.954;5.322;2023-09-12T10:58:26;8.40;;;6.70;;
21215;SDS011;10765;50.954;5.322;2023-09-12T11:03:50;6.60;;;5.90;;
21215;SDS011;10765;50.954;5.322;2023-09-12T11:06:22;7.53;;;5.90;;
21215;SDS011;10765;50.954;5.322;2023-09-12T11:11:43;8.32;;;7.55;;
21215;SDS011;10765;50.954;5.322;2023-09-12T11:14:11;14.38;;;8.65;;
21215;SDS011;10765;50.954;5.322;2023-09-12T11:16:38;8.85;;;8.00;;
21215;SDS011;10765;50.954;5.322;2023-09-12T11:19:11;8.85;;;7.35;;
21215;SDS011;10765;50.954;5.322;2023-09-12T11:21:41;9.93;;;7.50;;
21215;SDS011;10765;50.954;5.322;2023-09-12T11:24:09;8.13;;;7.32;;
21215;SDS011;10765;50.954;5.322;2023-09-12T11:26:51;8.73;;;7.22;;
21215;SDS011;10765;50.954;5.322;2023-09-12T11:29:21;7.05;;;6.15;;
21215;SDS011;10765;50.954;5.322;2023-09-12T11:31:52;6.65;;;6.05;;
21215;SDS011;10765;50.954;5.322;2023-09-12T11:34:23;5.85;;;5.38;;
21215;SDS011;10765;50.954;5.322;2023-09-12T11:36:55;6.53;;;5.53;;
21215;SDS011;10765;50.954;5.322;2023-09-12T11:39:24;5.80;;;5.40;;
21215;SDS011;10765;50.954;5.322;2023-09-12T11:41:54;5.80;;;5.15;;
21215;SDS011;10765;50.954;5.322;2023-09-12T11:44:22;6.90;;;5.47;;
21215;SDS011;10765;50.954;5.322;2023-09-12T11:46:51;4.53;;;4.13;;
21215;SDS011;10765;50.954;5.322;2023-09-12T11:49:19;5.10;;;4.60;;
21215;SDS011;10765;50.954;5.322;2023-09-12T11:51:47;5.22;;;4.82;;
21215;SDS011;10765;50.954;5.322;2023-09-12T11:54:16;5.05;;;4.50;;
21215;SDS011;10765;50.954;5.322;2023-09-12T11:56:46;5.72;;;5.13;;
21215;SDS011;10765;50.954;5.322;2023-09-12T11:59:13;5.40;;;4.45;;
21215;SDS011;10765;50.954;5.322;2023-09-12T12:01:41;5.72;;;5.00;;
21215;SDS011;10765;50.954;5.322;2023-09-12T12:04:08;4.93;;;4.40;;
21215;SDS011;10765;50.954;5.322;2023-09-12T12:06:35;5.15;;;4.65;;
21215;SDS011;10765;50.954;5.322;2023-09-12T12:09:03;5.10;;;4.70;;
21215;SDS011;10765;50.954;5.322;2023-09-12T12:11:32;6.00;;;5.13;;
21215;SDS011;10765;50.954;5.322;2023-09-12T12:14:08;5.90;;;5.30;;
21215;SDS011;10765;50.954;5.322;2023-09-12T12:16:39;6.05;;;5.43;;
21215;SDS011;10765;50.954;5.322;2023-09-12T12:19:06;5.25;;;4.75;;
21215;SDS011;10765;50.954;5.322;2023-09-12T12:21:33;5.55;;;4.53;;
21215;SDS011;10765;50.954;5.322;2023-09-12T12:24:01;5.82;;;4.75;;
21215;SDS011;10765;50.954;5.322;2023-09-12T12:26:29;5.20;;;4.68;;
21215;SDS011;10765;50.954;5.322;2023-09-12T12:28:58;5.00;;;4.50;;
21215;SDS011;10765;50.954;5.322;2023-09-12T12:31:26;4.80;;;4.37;;
21215;SDS011;10765;50.954;5.322;2023-09-12T12:33:54;4.90;;;4.40;;
21215;SDS011;10765;50.954;5.322;2023-09-12T12:36:21;7.22;;;4.28;;
21215;SDS011;10765;50.954;5.322;2023-09-12T12:38:49;5.25;;;4.40;;
21215;SDS011;10765;50.954;5.322;2023-09-12T12:41:17;3.97;;;3.60;;
21215;SDS011;10765;50.954;5.322;2023-09-12T12:43:50;3.30;;;3.00;;
21215;SDS011;10765;50.954;5.322;2023-09-12T12:46:17;4.00;;;3.60;;
21215;SDS011;10765;50.954;5.322;2023-09-12T12:48:46;3.85;;;3.55;;
21215;SDS011;10765;50.954;5.322;2023-09-12T12:51:15;5.18;;;3.75;;
21215;SDS011;10765;50.954;5.322;2023-09-12T12:53:44;4.13;;;3.70;;
21215;SDS011;10765;50.954;5.322;2023-09-12T12:56:13;5.82;;;4.00;;
21215;SDS011;10765;50.954;5.322;2023-09-12T12:58:45;4.53;;;3.83;;
21215;SDS011;10765;50.954;5.322;2023-09-12T13:01:15;5.28;;;4.63;;
21215;SDS011;10765;50.954;5.322;2023-09-12T13:03:42;5.05;;;3.80;;
21215;SDS011;10765;50.954;5.322;2023-09-12T13:06:09;4.57;;;4.18;;
21215;SDS011;10765;50.954;5.322;2023-09-12T13:08:39;4.78;;;4.15;;
21215;SDS011;10765;50.954;5.322;2023-09-12T13:11:07;5.55;;;4.25;;
21215;SDS011;10765;50.954;5.322;2023-09-12T13:13:34;5.93;;;3.92;;
21215;SDS011;10765;50.954;5.322;2023-09-12T13:16:02;4.05;;;3.70;;
21215;SDS011;10765;50.954;5.322;2023-09-12T13:18:32;4.53;;;4.13;;
21215;SDS011;10765;50.954;5.322;2023-09-12T13:20:59;5.38;;;4.10;;
21215;SDS011;10765;50.954;5.322;2023-09-12T13:23:26;5.60;;;4.35;;
21215;SDS011;10765;50.954;5.322;2023-09-12T13:25:53;4.60;;;3.88;;
21215;SDS011;10765;50.954;5.322;2023-09-12T13:28:20;5.32;;;4.22;;
21215;SDS011;10765;50.954;5.322;2023-09-12T13:30:50;6.68;;;4.47;;
21215;SDS011;10765;50.954;5.322;2023-09-12T13:33:17;6.80;;;4.03;;
21215;SDS011;10765;50.954;5.322;2023-09-12T13:35:46;4.80;;;4.30;;
21215;SDS011;10765;50.954;5.322;2023-09-12T13:38:13;3.88;;;3.58;;
21215;SDS011;10765;50.954;5.322;2023-09-12T13:40:42;4.53;;;4.00;;
21215;SDS011;10765;50.954;5.322;2023-09-12T13:43:10;5.65;;;4.20;;
21215;SDS011;10765;50.954;5.322;2023-09-12T13:45:37;5.93;;;3.80;;
21215;SDS011;10765;50.954;5.322;2023-09-12T13:48:04;4.45;;;3.70;;
21215;SDS011;10765;50.954;5.322;2023-09-12T13:50:32;4.13;;;3.35;;
21215;SDS011;10765;50.954;5.322;2023-09-12T13:53:01;5.97;;;3.95;;
21215;SDS011;10765;50.954;5.322;2023-09-12T13:55:31;4.10;;;3.80;;
21215;SDS011;10765;50.954;5.322;2023-09-12T13:57:58;4.37;;;3.87;;
21215;SDS011;10765;50.954;5.322;2023-09-12T14:00:25;5.63;;;3.93;;
21215;SDS011;10765;50.954;5.322;2023-09-12T14:02:52;6.57;;;4.27;;
21215;SDS011;10765;50.954;5.322;2023-09-12T14:05:19;4.60;;;4.20;;
21215;SDS011;10765;50.954;5.322;2023-09-12T14:07:47;4.53;;;3.67;;
21215;SDS011;10765;50.954;5.322;2023-09-12T14:10:15;4.80;;;3.70;;
21215;SDS011;10765;50.954;5.322;2023-09-12T14:12:43;4.03;;;3.60;;
21215;SDS011;10765;50.954;5.322;2023-09-12T14:15:11;4.95;;;3.78;;
21215;SDS011;10765;50.954;5.322;2023-09-12T14:17:39;5.40;;;3.73;;
21215;SDS011;10765;50.954;5.322;2023-09-12T14:20:06;5.60;;;3.43;;
21215;SDS011;10765;50.954;5.322;2023-09-12T14:22:34;3.90;;;3.60;;
21215;SDS011;10765;50.954;5.322;2023-09-12T14:25:01;4.17;;;3.77;;
21215;SDS011;10765;50.954;5.322;2023-09-12T14:27:29;4.23;;;3.83;;
21215;SDS011;10765;50.954;5.322;2023-09-12T14:29:56;4.47;;;3.97;;
21215;SDS011;10765;50.954;5.322;2023-09-12T14:32:24;4.03;;;3.63;;
21215;SDS011;10765;50.954;5.322;2023-09-12T14:34:51;3.90;;;3.60;;
21215;SDS011;10765;50.954;5.322;2023-09-12T14:37:18;4.37;;;3.73;;
21215;SDS011;10765;50.954;5.322;2023-09-12T14:39:47;4.57;;;4.13;;
21215;SDS011;10765;50.954;5.322;2023-09-12T14:42:14;4.53;;;4.13;;
21215;SDS011;10765;50.954;5.322;2023-09-12T14:44:42;4.27;;;3.87;;